createdAt,value
2022-10-22T00:03:44.505Z,15.36
2022-10-22T00:07:46.112Z,15.52
2022-10-22T00:11:47.929Z,15.60
2022-10-22T00:15:49.371Z,15.56
2022-10-22T00:19:50.814Z,15.40
2022-10-22T00:23:52.227Z,15.60
2022-10-22T00:27:53.812Z,15.60
2022-10-22T00:36:02.021Z,15.56
2022-10-22T00:40:04.508Z,15.62
2022-10-22T00:44:06.836Z,15.68
2022-10-22T00:48:14.975Z,15.77
2022-10-22T00:52:16.453Z,15.97
2022-10-22T00:56:18.006Z,16.06
2022-10-22T01:00:20.169Z,16.12
2022-10-22T01:04:21.617Z,15.97
2022-10-22T01:08:46.435Z,16.20
2022-10-22T01:13:16.555Z,16.16
2022-10-22T01:17:34.015Z,16.16
2022-10-22T01:21:50.237Z,15.85
2022-10-22T01:26:04.000Z,15.90
2022-10-22T01:30:11.552Z,16.12
2022-10-22T01:34:16.904Z,16.21
2022-10-22T01:38:22.772Z,16.09
2022-10-22T01:42:24.267Z,16.20
2022-10-22T01:46:27.700Z,15.97
2022-10-22T01:50:29.058Z,16.13
2022-10-22T01:54:42.615Z,16.17
2022-10-22T01:59:07.332Z,15.98
2022-10-22T02:03:21.263Z,16.17
2022-10-22T02:07:31.476Z,15.90
2022-10-22T02:11:32.980Z,15.98
2022-10-22T02:15:37.833Z,15.94
2022-10-22T02:19:50.267Z,15.66
2022-10-22T02:23:51.743Z,15.99
2022-10-22T02:28:02.512Z,15.90
2022-10-22T02:32:06.957Z,16.06
2022-10-22T02:36:09.419Z,16.01
2022-10-22T02:40:11.967Z,15.77
2022-10-22T02:44:13.584Z,15.91
2022-10-22T02:48:15.135Z,15.92
2022-10-22T02:52:16.590Z,15.83
2022-10-22T02:56:18.122Z,15.96
2022-10-22T03:00:19.936Z,15.83
2022-10-22T03:04:21.348Z,15.79
2022-10-22T03:08:22.760Z,15.56
2022-10-22T03:12:24.166Z,15.83
2022-10-22T03:16:25.612Z,16.07
2022-10-22T03:20:27.228Z,16.20
2022-10-22T03:24:37.513Z,16.09
2022-10-22T03:28:40.808Z,16.02
2022-10-22T03:32:42.213Z,16.02
2022-10-22T03:36:43.989Z,15.94
2022-10-22T03:40:46.175Z,15.81
2022-10-22T03:44:47.775Z,15.93
2022-10-22T03:48:49.201Z,16.03
2022-10-22T03:52:50.622Z,16.03
2022-10-22T03:56:52.051Z,16.00
2022-10-22T04:00:53.508Z,16.14
2022-10-22T04:04:54.920Z,16.08
2022-10-22T04:08:56.522Z,16.10
2022-10-22T04:12:57.984Z,16.05
2022-10-22T04:16:59.435Z,16.08
2022-10-22T04:21:00.862Z,16.27
2022-10-22T04:25:04.614Z,16.16
2022-10-22T04:29:08.679Z,16.11
2022-10-22T04:33:12.188Z,16.24
2022-10-22T04:37:13.636Z,16.13
2022-10-22T04:41:20.878Z,16.28
2022-10-22T04:45:22.591Z,16.28
2022-10-22T04:49:24.248Z,16.41
2022-10-22T04:53:25.786Z,16.34
2022-10-22T04:57:30.936Z,16.45
2022-10-22T05:01:41.660Z,16.50
2022-10-22T05:05:44.470Z,16.44
2022-10-22T05:09:45.877Z,16.57
2022-10-22T05:13:47.890Z,16.52
2022-10-22T05:17:49.293Z,16.58
2022-10-22T05:21:52.571Z,16.55
2022-10-22T05:25:54.032Z,16.62
2022-10-22T05:29:55.425Z,16.68
2022-10-22T05:33:56.985Z,16.41
2022-10-22T05:37:58.421Z,16.57
2022-10-22T05:41:59.843Z,16.53
2022-10-22T05:46:06.569Z,16.27
2022-10-22T05:50:08.291Z,16.22
2022-10-22T05:54:17.548Z,16.30
2022-10-22T05:58:18.978Z,16.38
2022-10-22T06:02:20.383Z,16.38
2022-10-22T06:06:26.155Z,16.34
2022-10-22T06:10:28.010Z,16.40
2022-10-22T06:14:32.143Z,16.35
2022-10-22T06:18:33.857Z,16.21
2022-10-22T06:22:35.279Z,16.48
2022-10-22T06:26:36.824Z,16.23
2022-10-22T06:30:41.827Z,16.18
2022-10-22T06:34:46.546Z,16.15
2022-10-22T06:38:51.851Z,16.22
2022-10-22T06:42:53.283Z,16.17
2022-10-22T06:46:54.748Z,16.25
2022-10-22T06:50:56.903Z,16.30
2022-10-22T06:54:58.343Z,16.34
2022-10-22T06:58:59.930Z,16.38
2022-10-22T07:03:01.328Z,16.47
2022-10-22T07:07:02.784Z,16.41
2022-10-22T07:11:16.591Z,16.61
2022-10-22T07:15:18.117Z,16.53
2022-10-22T07:19:19.549Z,16.69
2022-10-22T07:23:20.964Z,16.78
2022-10-22T07:27:22.391Z,16.76
2022-10-22T07:31:23.813Z,16.46
2022-10-22T07:35:25.243Z,16.60
2022-10-22T07:39:26.738Z,16.75
2022-10-22T07:43:28.294Z,16.80
2022-10-22T07:47:29.787Z,17.02
2022-10-22T07:51:31.196Z,16.90
2022-10-22T07:55:33.487Z,16.98
2022-10-22T07:59:34.931Z,16.89
2022-10-22T08:03:36.510Z,16.97
2022-10-22T08:07:37.914Z,17.14
2022-10-22T08:11:39.343Z,17.21
2022-10-22T08:15:42.523Z,17.32
2022-10-22T08:19:43.945Z,17.09
2022-10-22T08:23:45.398Z,17.18
2022-10-22T08:27:46.802Z,17.24
2022-10-22T08:31:49.552Z,17.47
2022-10-22T08:35:51.994Z,17.55
2022-10-22T08:39:53.470Z,17.55
2022-10-22T08:44:06.304Z,17.59
2022-10-22T08:48:35.113Z,17.81
2022-10-22T08:52:39.960Z,17.65
2022-10-22T08:56:46.180Z,17.79
2022-10-22T09:01:03.795Z,17.57
2022-10-22T09:05:13.808Z,17.86
2022-10-22T09:09:17.537Z,17.59
2022-10-22T09:13:21.220Z,17.82
2022-10-22T09:17:38.033Z,17.80
2022-10-22T09:22:11.592Z,17.81
2022-10-22T09:26:15.779Z,18.11
2022-10-22T09:30:21.130Z,18.09
2022-10-22T09:34:22.692Z,18.19
2022-10-22T09:38:28.800Z,18.35
2022-10-22T09:42:33.160Z,18.14
2022-10-22T09:46:39.712Z,18.36
2022-10-22T09:50:45.703Z,18.38
2022-10-22T09:54:52.393Z,18.42
2022-10-22T09:58:57.228Z,18.45
2022-10-22T10:03:00.309Z,18.54
2022-10-22T10:07:01.845Z,19.07
2022-10-22T10:11:14.477Z,19.19
2022-10-22T10:15:38.182Z,19.82
2022-10-22T10:19:50.055Z,19.62
2022-10-22T10:24:17.263Z,19.97
2022-10-22T10:28:47.911Z,19.62
2022-10-22T10:33:15.772Z,20.00
2022-10-22T10:37:35.352Z,20.00
2022-10-22T10:41:56.047Z,19.99
2022-10-22T10:46:33.454Z,20.11
2022-10-22T10:50:49.455Z,20.21
2022-10-22T10:55:11.907Z,20.23
2022-10-22T10:59:42.740Z,19.92
2022-10-22T11:04:08.864Z,19.85
2022-10-22T11:08:31.328Z,20.18
2022-10-22T11:12:44.397Z,20.45
2022-10-22T11:16:53.069Z,20.69
2022-10-22T11:21:08.947Z,20.88
2022-10-22T11:25:13.306Z,20.68
2022-10-22T11:29:25.635Z,20.86
2022-10-22T11:33:39.257Z,20.93
2022-10-22T11:37:44.250Z,20.95
2022-10-22T11:41:46.001Z,20.99
2022-10-22T11:45:50.329Z,21.37
2022-10-22T11:49:58.526Z,21.17
2022-10-22T11:54:21.923Z,20.88
2022-10-22T11:58:29.880Z,20.87
2022-10-22T12:02:40.583Z,21.20
2022-10-22T12:06:53.389Z,21.35
2022-10-22T12:11:06.251Z,21.20
2022-10-22T12:15:24.562Z,21.56
2022-10-22T12:19:29.685Z,21.09
2022-10-22T12:23:34.313Z,21.13
2022-10-22T12:27:38.742Z,21.26
2022-10-22T12:31:42.469Z,21.48
2022-10-22T12:35:46.729Z,21.68
2022-10-22T12:39:48.240Z,21.58
2022-10-22T12:43:58.200Z,21.28
2022-10-22T12:48:02.957Z,21.41
2022-10-22T12:52:10.858Z,21.25
2022-10-22T12:56:20.912Z,20.84
2022-10-22T13:00:27.045Z,20.65
2022-10-22T13:04:37.457Z,20.93
2022-10-22T13:08:39.396Z,21.32
2022-10-22T13:12:48.582Z,21.09
2022-10-22T13:17:12.739Z,20.83
2022-10-22T13:21:35.229Z,20.51
2022-10-22T13:25:40.771Z,20.50
2022-10-22T13:29:42.523Z,20.71
2022-10-22T13:33:46.861Z,20.66
2022-10-22T13:37:48.262Z,20.45
2022-10-22T13:41:50.509Z,20.31
2022-10-22T13:45:55.433Z,20.50
2022-10-22T13:50:01.565Z,20.41
2022-10-22T13:54:04.497Z,20.17
2022-10-22T13:58:11.618Z,19.74
2022-10-22T14:02:13.819Z,19.58
2022-10-22T14:06:17.706Z,19.70
2022-10-22T14:10:21.825Z,19.52
2022-10-22T14:14:23.236Z,19.61
2022-10-22T14:18:28.875Z,19.48
2022-10-22T14:22:30.692Z,19.35
2022-10-22T14:26:33.228Z,19.02
2022-10-22T14:30:34.742Z,19.09
2022-10-22T14:34:36.238Z,19.00
2022-10-22T14:38:37.656Z,18.90
2022-10-22T14:42:42.049Z,18.88
2022-10-22T14:46:44.304Z,18.75
2022-10-22T14:50:47.788Z,18.60
2022-10-22T14:54:49.187Z,18.45
2022-10-22T14:58:50.884Z,18.36
2022-10-22T15:02:52.434Z,18.31
2022-10-22T15:06:56.326Z,18.14
2022-10-22T15:11:05.998Z,17.98
2022-10-22T15:15:07.864Z,17.97
2022-10-22T15:19:11.069Z,17.59
2022-10-22T15:23:12.465Z,17.84
2022-10-22T15:27:14.455Z,17.80
2022-10-22T15:31:16.048Z,17.79
2022-10-22T15:35:17.467Z,17.48
2022-10-22T15:39:18.984Z,17.44
2022-10-22T15:43:20.633Z,17.59
2022-10-22T15:47:22.574Z,17.65
2022-10-22T15:51:24.776Z,17.41
2022-10-22T15:55:26.776Z,16.74
2022-10-22T15:59:28.442Z,16.65
2022-10-22T16:03:32.881Z,16.68
2022-10-22T16:07:34.300Z,17.11
2022-10-22T16:11:36.930Z,17.22
2022-10-22T16:15:38.337Z,17.28
2022-10-22T16:19:39.739Z,17.32
2022-10-22T16:23:42.150Z,17.23
2022-10-22T16:27:43.589Z,16.84
2022-10-22T16:31:45.432Z,16.43
2022-10-22T16:35:48.381Z,16.28
2022-10-22T16:39:49.781Z,16.53
2022-10-22T16:43:54.979Z,16.71
2022-10-22T16:47:56.396Z,16.85
2022-10-22T16:51:57.831Z,17.11
2022-10-22T16:55:59.405Z,16.88
2022-10-22T17:00:01.013Z,16.65
2022-10-22T17:04:02.471Z,16.50
2022-10-22T17:08:04.115Z,16.76
2022-10-22T17:12:05.739Z,16.58
2022-10-22T17:16:10.459Z,16.66
2022-10-22T17:20:11.877Z,16.73
2022-10-22T17:24:13.340Z,16.75
2022-10-22T17:28:14.790Z,16.81
2022-10-22T17:32:16.460Z,16.75
2022-10-22T17:36:19.318Z,16.76
2022-10-22T17:40:21.818Z,16.61
2022-10-22T17:44:23.343Z,16.46
2022-10-22T17:48:24.765Z,16.50
2022-10-22T17:52:26.201Z,16.39
2022-10-22T17:56:30.147Z,16.46
2022-10-22T18:00:33.373Z,16.56
2022-10-22T18:04:34.902Z,16.61
2022-10-22T18:08:36.681Z,16.67
2022-10-22T18:12:38.259Z,16.62
2022-10-22T18:16:39.861Z,16.60
2022-10-22T18:20:41.367Z,16.62
2022-10-22T18:24:42.970Z,16.64
2022-10-22T18:28:44.905Z,16.80
2022-10-22T18:32:46.310Z,16.75
2022-10-22T18:36:47.724Z,16.84
2022-10-22T18:40:50.143Z,16.85
2022-10-22T18:44:51.824Z,17.01
2022-10-22T18:48:55.191Z,16.98
2022-10-22T18:52:56.656Z,16.93
2022-10-22T18:57:01.911Z,16.76
2022-10-22T19:01:17.560Z,16.69
2022-10-22T19:05:19.106Z,16.69
2022-10-22T19:09:25.270Z,16.82
2022-10-22T19:13:26.845Z,17.09
2022-10-22T19:17:28.282Z,17.18
2022-10-22T19:21:30.548Z,17.38
2022-10-22T19:25:31.989Z,17.45
2022-10-22T19:29:33.428Z,17.65
2022-10-22T19:33:37.265Z,17.73
2022-10-22T19:37:39.174Z,17.65
2022-10-22T19:41:40.606Z,17.49
2022-10-22T19:45:42.073Z,17.47
2022-10-22T19:49:43.669Z,17.59
2022-10-22T19:53:45.491Z,17.34
2022-10-22T19:57:47.044Z,17.42
2022-10-22T20:01:48.832Z,17.31
2022-10-22T20:05:51.008Z,17.31
2022-10-22T20:09:52.469Z,17.37
2022-10-22T20:13:54.870Z,17.43
2022-10-22T20:17:56.347Z,17.48
2022-10-22T20:26:04.742Z,17.49
2022-10-22T20:30:07.292Z,17.55
2022-10-22T20:34:09.065Z,17.43
2022-10-22T20:38:14.655Z,17.52
2022-10-22T20:42:16.495Z,17.43
2022-10-22T20:46:31.721Z,17.68
2022-10-22T20:50:33.326Z,17.58
2022-10-22T20:54:34.997Z,17.69
2022-10-22T20:58:37.574Z,17.61
2022-10-22T21:02:39.127Z,17.52
2022-10-22T21:06:42.806Z,17.49
2022-10-22T21:10:48.949Z,17.37
2022-10-22T21:14:50.535Z,17.27
2022-10-22T21:18:52.047Z,17.26
2022-10-22T21:22:53.455Z,17.22
2022-10-22T21:26:55.066Z,17.10
2022-10-22T21:30:56.501Z,17.28
2022-10-22T21:34:57.886Z,17.06
2022-10-22T21:39:00.704Z,17.12
2022-10-22T21:43:02.128Z,16.99
2022-10-22T21:47:03.717Z,16.97
2022-10-22T21:51:13.479Z,16.99
2022-10-22T21:55:14.887Z,17.14
2022-10-22T21:59:16.327Z,17.12
2022-10-22T22:03:17.917Z,17.12
2022-10-22T22:07:19.310Z,17.09
2022-10-22T22:11:23.916Z,17.01
2022-10-22T22:15:25.353Z,16.90
2022-10-22T22:19:27.008Z,16.90
2022-10-22T22:23:28.423Z,16.87
2022-10-22T22:27:30.028Z,17.05
2022-10-22T22:31:33.680Z,16.84
2022-10-22T22:35:36.933Z,16.86
2022-10-22T22:39:38.317Z,16.89
2022-10-22T22:43:39.746Z,16.79
2022-10-22T22:47:41.419Z,16.72
2022-10-22T22:51:43.935Z,16.95
2022-10-22T22:55:45.412Z,16.79
2022-10-22T22:59:50.425Z,16.94
2022-10-22T23:04:07.345Z,17.02
2022-10-22T23:08:08.764Z,16.95
2022-10-22T23:12:10.274Z,16.83
2022-10-22T23:16:15.735Z,16.85
2022-10-22T23:20:17.182Z,16.93
2022-10-22T23:24:22.115Z,16.97
2022-10-22T23:28:24.113Z,17.12
2022-10-22T23:32:25.572Z,16.87
2022-10-22T23:36:27.351Z,16.96
2022-10-22T23:40:28.744Z,16.96
2022-10-22T23:44:30.245Z,16.93
2022-10-22T23:48:31.749Z,16.98
2022-10-22T23:52:33.215Z,16.84
2022-10-22T23:56:35.496Z,16.99
